createdAt,value
2022-11-17T00:00:44.037Z,6.80
2022-11-17T00:03:19.909Z,6.73
2022-11-17T00:05:47.521Z,6.00
2022-11-17T00:08:15.090Z,6.10
2022-11-17T00:10:42.608Z,6.40
2022-11-17T00:13:30.154Z,6.33
2022-11-17T00:15:57.725Z,6.50
2022-11-17T00:18:43.989Z,6.43
2022-11-17T00:21:19.569Z,7.40
2022-11-17T00:23:47.938Z,7.30
2022-11-17T00:26:22.388Z,6.90
2022-11-17T00:29:02.544Z,6.97
2022-11-17T00:31:50.989Z,8.20
2022-11-17T00:34:21.995Z,8.30
2022-11-17T00:36:53.331Z,8.27
2022-11-17T00:39:23.441Z,7.83
2022-11-17T00:41:51.294Z,7.90
2022-11-17T00:44:19.151Z,8.33
2022-11-17T00:46:46.803Z,8.90
2022-11-17T00:49:14.932Z,8.53
2022-11-17T00:51:42.977Z,9.07
2022-11-17T00:54:13.288Z,8.80
2022-11-17T00:56:41.349Z,8.43
2022-11-17T00:59:08.902Z,9.07
2022-11-17T01:01:37.362Z,8.67
2022-11-17T01:04:05.738Z,9.60
2022-11-17T01:06:46.109Z,9.40
2022-11-17T01:09:17.994Z,9.60
2022-11-17T01:11:46.310Z,9.07
2022-11-17T01:14:18.971Z,9.00
2022-11-17T01:16:46.994Z,9.43
2022-11-17T01:19:19.043Z,9.23
2022-11-17T01:21:47.328Z,9.57
2022-11-17T01:24:16.741Z,9.30
2022-11-17T01:26:46.195Z,9.00
2022-11-17T01:29:17.538Z,9.77
2022-11-17T01:31:49.198Z,8.83
2022-11-17T01:34:16.741Z,8.53
2022-11-17T01:37:03.852Z,8.83
2022-11-17T01:39:32.416Z,9.13
2022-11-17T01:42:05.424Z,9.67
2022-11-17T01:45:14.897Z,9.53
2022-11-17T01:47:55.405Z,10.27
2022-11-17T01:50:38.613Z,10.30
2022-11-17T01:53:17.530Z,10.03
2022-11-17T01:55:52.491Z,9.73
2022-11-17T01:58:27.124Z,10.40
2022-11-17T02:00:55.854Z,9.87
2022-11-17T02:03:27.787Z,10.33
2022-11-17T02:06:21.413Z,9.20
2022-11-17T02:08:50.174Z,10.30
2022-11-17T02:11:20.343Z,11.30
2022-11-17T02:13:49.577Z,10.10
2022-11-17T02:16:17.779Z,10.30
2022-11-17T02:18:46.661Z,10.43
2022-11-17T02:21:57.510Z,10.40
2022-11-17T02:24:45.966Z,10.87
2022-11-17T02:27:52.526Z,10.13
2022-11-17T02:30:22.055Z,10.47
2022-11-17T02:32:55.646Z,10.43
2022-11-17T02:36:11.910Z,10.27
2022-11-17T02:38:52.094Z,10.73
2022-11-17T02:41:27.365Z,11.40
2022-11-17T02:44:12.592Z,10.33
2022-11-17T02:47:12.063Z,10.63
2022-11-17T02:50:07.669Z,10.27
2022-11-17T02:52:35.296Z,11.10
2022-11-17T02:55:05.595Z,10.60
2022-11-17T02:57:36.672Z,10.90
2022-11-17T03:00:11.804Z,11.83
2022-11-17T03:03:15.517Z,10.73
2022-11-17T03:06:04.631Z,11.57
2022-11-17T03:09:01.364Z,11.47
2022-11-17T03:12:23.821Z,12.20
2022-11-17T03:15:19.895Z,12.40
2022-11-17T03:18:44.307Z,11.60
2022-11-17T03:21:21.017Z,12.27
2022-11-17T03:24:14.500Z,12.30
2022-11-17T03:26:50.491Z,13.30
2022-11-17T03:29:23.102Z,12.63
2022-11-17T03:31:58.003Z,12.53
2022-11-17T03:34:29.832Z,12.57
2022-11-17T03:37:03.691Z,12.00
2022-11-17T03:39:37.512Z,11.80
2022-11-17T03:42:24.633Z,12.27
2022-11-17T03:44:58.622Z,13.00
2022-11-17T03:47:28.890Z,12.20
2022-11-17T03:50:12.737Z,11.53
2022-11-17T03:52:41.073Z,10.23
2022-11-17T03:55:09.549Z,11.90
2022-11-17T03:58:00.022Z,11.37
2022-11-17T04:00:27.454Z,13.23
2022-11-17T04:02:59.043Z,11.13
2022-11-17T04:05:27.192Z,11.53
2022-11-17T04:07:54.579Z,11.27
2022-11-17T04:10:25.888Z,11.90
2022-11-17T04:13:13.097Z,10.70
2022-11-17T04:15:59.452Z,10.97
2022-11-17T04:18:27.380Z,11.03
2022-11-17T04:20:57.295Z,12.40
2022-11-17T04:23:26.143Z,11.37
2022-11-17T04:26:14.883Z,10.77
2022-11-17T04:28:50.018Z,12.13
2022-11-17T04:31:21.496Z,10.80
2022-11-17T04:33:58.491Z,10.83
2022-11-17T04:36:40.344Z,11.53
2022-11-17T04:39:07.775Z,10.83
2022-11-17T04:41:54.402Z,10.40
2022-11-17T04:44:31.547Z,10.30
2022-11-17T04:46:59.642Z,11.60
2022-11-17T04:49:27.419Z,11.50
2022-11-17T04:51:55.080Z,11.57
2022-11-17T04:54:24.967Z,11.60
2022-11-17T04:56:53.993Z,10.63
2022-11-17T04:59:22.034Z,10.40
2022-11-17T05:01:50.258Z,10.77
2022-11-17T05:04:39.066Z,10.47
2022-11-17T05:07:07.762Z,11.40
2022-11-17T05:09:35.663Z,10.70
2022-11-17T05:12:22.011Z,10.80
2022-11-17T05:14:50.695Z,11.47
2022-11-17T05:17:18.424Z,11.90
2022-11-17T05:19:48.644Z,11.83
2022-11-17T05:22:42.735Z,10.57
2022-11-17T05:25:10.390Z,11.33
2022-11-17T05:27:38.125Z,10.53
2022-11-17T05:30:08.532Z,10.60
2022-11-17T05:32:35.997Z,10.73
2022-11-17T05:35:03.507Z,11.70
2022-11-17T05:37:30.930Z,11.10
2022-11-17T05:39:58.413Z,11.13
2022-11-17T05:42:25.993Z,12.77
2022-11-17T05:44:53.365Z,12.33
2022-11-17T05:47:20.750Z,12.97
2022-11-17T05:49:48.136Z,11.53
2022-11-17T05:52:15.503Z,11.40
2022-11-17T05:54:43.177Z,12.07
2022-11-17T05:57:16.934Z,11.00
2022-11-17T05:59:54.153Z,11.47
2022-11-17T06:02:30.440Z,11.17
2022-11-17T06:04:57.829Z,11.17
2022-11-17T06:07:25.445Z,11.13
2022-11-17T06:09:53.459Z,10.30
2022-11-17T06:12:20.914Z,10.80
2022-11-17T06:14:48.371Z,11.17
2022-11-17T06:17:38.316Z,11.77
2022-11-17T06:20:07.081Z,11.20
2022-11-17T06:22:35.421Z,12.50
2022-11-17T06:25:04.735Z,11.27
2022-11-17T06:27:33.559Z,10.60
2022-11-17T06:30:04.287Z,10.77
2022-11-17T06:32:35.146Z,10.63
2022-11-17T06:35:06.649Z,10.97
2022-11-17T06:37:34.056Z,12.63
2022-11-17T06:40:01.530Z,11.37
2022-11-17T06:42:47.391Z,10.63
2022-11-17T06:45:14.846Z,10.60
2022-11-17T06:47:42.252Z,10.27
2022-11-17T06:50:10.373Z,9.47
2022-11-17T06:52:39.014Z,10.43
2022-11-17T06:55:07.394Z,11.07
2022-11-17T06:57:34.914Z,10.30
2022-11-17T07:00:02.702Z,10.73
2022-11-17T07:02:32.640Z,11.17
2022-11-17T07:05:00.055Z,10.93
2022-11-17T07:07:27.758Z,10.83
2022-11-17T07:09:55.240Z,10.30
2022-11-17T07:12:22.694Z,9.93
2022-11-17T07:14:50.111Z,9.80
2022-11-17T07:17:17.535Z,9.90
2022-11-17T07:19:44.974Z,10.03
2022-11-17T07:22:12.388Z,9.77
2022-11-17T07:24:39.949Z,10.30
2022-11-17T07:27:07.451Z,9.43
2022-11-17T07:29:34.922Z,9.00
2022-11-17T07:32:02.350Z,10.00
2022-11-17T07:34:29.753Z,9.47
2022-11-17T07:36:57.177Z,8.53
2022-11-17T07:39:24.672Z,9.00
2022-11-17T07:41:52.103Z,7.90
2022-11-17T07:44:19.525Z,7.77
2022-11-17T07:46:47.001Z,7.43
2022-11-17T07:49:14.511Z,7.43
2022-11-17T07:51:41.979Z,7.07
2022-11-17T07:54:09.410Z,7.50
2022-11-17T07:56:36.860Z,7.33
2022-11-17T07:59:04.368Z,7.17
2022-11-17T08:01:32.345Z,6.70
2022-11-17T08:03:59.819Z,6.90
2022-11-17T08:06:27.359Z,6.80
2022-11-17T08:08:54.957Z,6.80
2022-11-17T08:11:22.423Z,7.07
2022-11-17T08:13:50.954Z,8.20
2022-11-17T08:16:18.687Z,8.93
2022-11-17T08:18:51.694Z,10.20
2022-11-17T08:21:20.054Z,10.10
2022-11-17T08:23:55.333Z,12.47
2022-11-17T08:26:25.293Z,10.30
2022-11-17T08:28:58.142Z,11.47
2022-11-17T08:31:26.341Z,11.40
2022-11-17T08:33:53.724Z,12.20
2022-11-17T08:36:21.153Z,14.83
2022-11-17T08:38:48.614Z,17.67
2022-11-17T08:41:15.996Z,14.73
2022-11-17T08:43:43.566Z,15.27
2022-11-17T08:46:14.651Z,11.50
2022-11-17T08:48:42.186Z,11.07
2022-11-17T08:51:10.034Z,11.70
2022-11-17T08:53:37.476Z,8.83
2022-11-17T08:56:10.710Z,11.47
2022-11-17T08:58:44.628Z,11.37
2022-11-17T09:01:18.760Z,9.77
2022-11-17T09:03:48.150Z,8.13
2022-11-17T09:06:17.804Z,8.57
2022-11-17T09:08:56.198Z,8.63
2022-11-17T09:11:24.375Z,9.70
2022-11-17T09:13:51.843Z,9.17
2022-11-17T09:16:19.273Z,8.40
2022-11-17T09:18:46.782Z,8.80
2022-11-17T09:21:16.136Z,8.90
2022-11-17T09:23:43.755Z,8.50
2022-11-17T09:26:14.492Z,10.53
2022-11-17T09:28:44.312Z,9.73
2022-11-17T09:31:19.393Z,9.63
2022-11-17T09:33:47.261Z,12.60
2022-11-17T09:36:17.110Z,8.83
2022-11-17T09:38:44.911Z,8.77
2022-11-17T09:41:36.342Z,8.23
2022-11-17T09:44:33.235Z,8.23
2022-11-17T09:47:41.767Z,9.00
2022-11-17T09:50:23.700Z,8.40
2022-11-17T09:53:02.839Z,8.10
2022-11-17T09:55:46.708Z,7.60
2022-11-17T09:58:26.031Z,8.60
2022-11-17T10:00:54.545Z,10.47
2022-11-17T10:03:28.915Z,8.70
2022-11-17T10:05:56.784Z,7.20
2022-11-17T10:09:03.692Z,6.60
2022-11-17T10:11:41.392Z,7.43
2022-11-17T10:14:08.744Z,7.07
2022-11-17T10:16:38.487Z,7.50
2022-11-17T10:19:25.754Z,6.50
2022-11-17T10:22:06.514Z,6.50
2022-11-17T10:24:39.816Z,6.60
2022-11-17T10:27:31.432Z,6.47
2022-11-17T10:30:23.573Z,6.30
2022-11-17T10:32:57.274Z,7.00
2022-11-17T10:35:35.063Z,6.27
2022-11-17T10:38:24.740Z,4.83
2022-11-17T10:40:54.019Z,4.30
2022-11-17T10:43:37.537Z,6.00
2022-11-17T10:46:13.998Z,5.57
2022-11-17T10:49:00.920Z,6.27
2022-11-17T10:51:32.662Z,8.20
2022-11-17T10:54:16.630Z,6.20
2022-11-17T10:56:48.538Z,4.73
2022-11-17T10:59:20.873Z,3.97
2022-11-17T11:01:51.366Z,5.80
2022-11-17T11:04:42.279Z,5.03
2022-11-17T11:07:15.608Z,4.60
2022-11-17T11:10:28.323Z,5.70
2022-11-17T11:13:35.822Z,4.80
2022-11-17T11:16:03.811Z,3.87
2022-11-17T11:18:32.301Z,4.30
2022-11-17T11:21:22.075Z,3.50
2022-11-17T11:24:26.459Z,4.23
2022-11-17T11:27:15.220Z,3.30
2022-11-17T11:29:51.176Z,6.83
2022-11-17T11:32:38.436Z,9.87
2022-11-17T11:35:50.767Z,3.20
2022-11-17T11:38:46.493Z,4.10
2022-11-17T11:41:37.807Z,2.80
2022-11-17T11:44:25.178Z,3.80
2022-11-17T11:47:45.200Z,3.10
2022-11-17T11:50:26.407Z,2.60
2022-11-17T11:53:28.687Z,3.73
2022-11-17T11:56:18.598Z,7.00
2022-11-17T11:59:01.208Z,9.17
2022-11-17T12:01:40.366Z,9.23
2022-11-17T12:04:36.324Z,12.33
2022-11-17T12:07:24.619Z,13.07
2022-11-17T12:10:49.130Z,15.83
2022-11-17T12:13:19.588Z,11.83
2022-11-17T12:15:47.163Z,15.67
2022-11-17T12:18:31.910Z,15.20
2022-11-17T12:21:13.304Z,13.10
2022-11-17T12:24:07.715Z,12.47
2022-11-17T12:26:36.613Z,12.03
2022-11-17T12:29:22.739Z,11.43
2022-11-17T12:32:02.577Z,12.43
2022-11-17T12:34:34.042Z,9.57
2022-11-17T12:37:20.187Z,10.73
2022-11-17T12:39:59.381Z,9.20
2022-11-17T12:42:29.179Z,10.17
2022-11-17T12:45:05.199Z,10.33
2022-11-17T12:47:59.210Z,7.67
2022-11-17T12:50:49.599Z,9.20
2022-11-17T12:53:37.618Z,5.43
2022-11-17T12:56:42.611Z,5.00
2022-11-17T12:59:24.876Z,5.50
2022-11-17T13:02:18.812Z,5.30
2022-11-17T13:04:49.800Z,6.50
2022-11-17T13:07:26.047Z,8.53
2022-11-17T13:09:57.396Z,15.23
2022-11-17T13:12:31.079Z,4.50
2022-11-17T13:15:05.191Z,4.97
2022-11-17T13:17:43.281Z,7.63
2022-11-17T13:20:30.850Z,6.90
2022-11-17T13:23:23.756Z,4.93
2022-11-17T13:26:08.257Z,7.13
2022-11-17T13:28:35.858Z,13.47
2022-11-17T13:31:03.708Z,7.03
2022-11-17T13:33:36.948Z,6.37
2022-11-17T13:36:16.692Z,6.20
2022-11-17T13:38:52.702Z,7.07
2022-11-17T13:41:24.714Z,6.20
2022-11-17T13:43:53.590Z,4.40
2022-11-17T13:46:21.500Z,7.20
2022-11-17T13:48:51.416Z,8.00
2022-11-17T13:51:27.993Z,8.90
2022-11-17T13:54:03.557Z,10.80
2022-11-17T13:56:39.808Z,14.83
2022-11-17T13:59:28.316Z,17.20
2022-11-17T14:02:17.825Z,19.40
2022-11-17T14:05:10.124Z,14.87
2022-11-17T14:07:40.163Z,19.37
2022-11-17T14:10:22.814Z,17.10
2022-11-17T14:13:14.680Z,16.03
2022-11-17T14:15:43.083Z,18.17
2022-11-17T14:18:34.325Z,17.90
2022-11-17T14:21:20.058Z,14.57
2022-11-17T14:23:47.611Z,16.00
2022-11-17T14:26:24.439Z,11.17
2022-11-17T14:28:53.037Z,11.77
2022-11-17T14:31:20.492Z,11.77
2022-11-17T14:33:48.082Z,11.83
2022-11-17T14:36:17.899Z,12.33
2022-11-17T14:38:46.738Z,9.50
2022-11-17T14:41:17.036Z,8.80
2022-11-17T14:43:45.045Z,11.30
2022-11-17T14:46:39.213Z,8.63
2022-11-17T14:49:07.087Z,8.97
2022-11-17T14:51:35.124Z,15.57
2022-11-17T14:54:03.238Z,9.50
2022-11-17T14:56:30.807Z,8.67
2022-11-17T14:58:59.960Z,8.93
2022-11-17T15:01:31.265Z,10.30
2022-11-17T15:04:20.641Z,8.00
2022-11-17T15:06:49.769Z,9.57
2022-11-17T15:09:17.254Z,8.00
2022-11-17T15:11:44.692Z,9.63
2022-11-17T15:14:12.117Z,9.80
2022-11-17T15:16:39.505Z,10.50
2022-11-17T15:19:07.254Z,8.73
2022-11-17T15:21:34.901Z,8.77
2022-11-17T15:24:03.984Z,8.87
2022-11-17T15:26:31.576Z,9.23
2022-11-17T15:28:59.163Z,7.63
2022-11-17T15:31:26.889Z,7.97
2022-11-17T15:33:54.357Z,8.13
2022-11-17T15:36:25.931Z,8.07
2022-11-17T15:38:53.610Z,7.37
2022-11-17T15:41:21.524Z,7.80
2022-11-17T15:43:49.261Z,6.80
2022-11-17T15:46:18.848Z,8.13
2022-11-17T15:48:49.372Z,6.93
2022-11-17T15:51:20.423Z,8.70
2022-11-17T15:53:49.786Z,7.57
2022-11-17T15:56:29.111Z,6.73
2022-11-17T15:59:03.305Z,6.33
2022-11-17T16:01:33.002Z,6.30
2022-11-17T16:04:06.164Z,6.93
2022-11-17T16:06:37.278Z,6.93
2022-11-17T16:09:06.663Z,8.50
2022-11-17T16:11:35.211Z,8.20
2022-11-17T16:14:03.999Z,10.17
2022-11-17T16:16:37.655Z,6.90
2022-11-17T16:19:06.234Z,6.27
2022-11-17T16:21:33.671Z,8.70
2022-11-17T16:24:02.376Z,7.93
2022-11-17T16:26:31.704Z,7.80
2022-11-17T16:29:05.081Z,8.43
2022-11-17T16:31:36.046Z,7.60
2022-11-17T16:34:19.055Z,8.33
2022-11-17T16:36:46.560Z,8.70
2022-11-17T16:39:17.282Z,10.10
2022-11-17T16:41:45.849Z,8.17
2022-11-17T16:44:17.244Z,8.20
2022-11-17T16:46:47.710Z,8.00
2022-11-17T16:49:18.110Z,6.97
2022-11-17T16:51:54.013Z,12.13
2022-11-17T16:54:21.754Z,7.27
2022-11-17T16:56:49.732Z,8.27
2022-11-17T16:59:17.590Z,8.47
2022-11-17T17:01:45.262Z,13.43
2022-11-17T17:04:12.715Z,8.10
2022-11-17T17:06:43.627Z,8.67
2022-11-17T17:09:13.723Z,7.13
2022-11-17T17:11:42.125Z,7.20
2022-11-17T17:14:13.575Z,7.70
2022-11-17T17:16:41.987Z,8.00
2022-11-17T17:19:11.789Z,9.00
2022-11-17T17:21:41.530Z,16.97
2022-11-17T17:24:10.270Z,17.17
2022-11-17T17:26:39.375Z,14.37
2022-11-17T17:29:07.743Z,8.73
2022-11-17T17:31:40.993Z,10.57
2022-11-17T17:34:11.401Z,10.80
2022-11-17T17:36:38.917Z,9.00
2022-11-17T17:39:07.410Z,8.80
2022-11-17T17:41:40.241Z,10.37
2022-11-17T17:44:08.979Z,11.03
2022-11-17T17:46:38.812Z,8.70
2022-11-17T17:49:07.511Z,7.00
2022-11-17T17:51:40.268Z,9.57
2022-11-17T17:54:14.212Z,7.77
2022-11-17T17:56:41.689Z,7.30
2022-11-17T17:59:09.356Z,6.83
2022-11-17T18:01:37.763Z,6.90
2022-11-17T18:04:05.624Z,9.47
2022-11-17T18:06:38.351Z,6.83
2022-11-17T18:09:08.344Z,8.10
2022-11-17T18:11:35.996Z,8.00
2022-11-17T18:14:04.273Z,7.37
2022-11-17T18:16:34.557Z,8.60
2022-11-17T18:19:05.883Z,9.30
2022-11-17T18:21:34.351Z,8.47
2022-11-17T18:24:03.456Z,6.37
2022-11-17T18:26:33.766Z,8.87
2022-11-17T18:29:13.905Z,7.20
2022-11-17T18:31:42.329Z,7.87
2022-11-17T18:34:23.448Z,9.27
2022-11-17T18:36:53.715Z,10.93
2022-11-17T18:39:21.500Z,9.83
2022-11-17T18:41:49.100Z,8.10
2022-11-17T18:44:19.748Z,9.60
2022-11-17T18:46:47.764Z,8.47
2022-11-17T18:49:15.540Z,8.00
2022-11-17T18:51:43.635Z,8.80
2022-11-17T18:54:12.237Z,9.43
2022-11-17T18:56:40.207Z,7.73
2022-11-17T18:59:11.971Z,8.70
2022-11-17T19:01:42.403Z,9.47
2022-11-17T19:04:13.683Z,8.67
2022-11-17T19:06:41.889Z,8.53
2022-11-17T19:09:09.456Z,8.50
2022-11-17T19:11:36.906Z,9.47
2022-11-17T19:14:05.760Z,10.27
2022-11-17T19:16:42.512Z,15.93
2022-11-17T19:19:13.678Z,12.43
2022-11-17T19:21:42.023Z,9.67
2022-11-17T19:24:09.598Z,10.93
2022-11-17T19:26:37.100Z,10.03
2022-11-17T19:29:15.587Z,10.67
2022-11-17T19:31:45.201Z,12.23
2022-11-17T19:34:12.794Z,12.17
2022-11-17T19:36:40.502Z,11.53
2022-11-17T19:39:07.972Z,11.13
2022-11-17T19:41:38.442Z,10.73
2022-11-17T19:44:08.911Z,9.60
2022-11-17T19:46:37.340Z,11.60
2022-11-17T19:49:06.339Z,10.00
2022-11-17T19:51:38.761Z,10.40
2022-11-17T19:54:09.728Z,10.33
2022-11-17T19:56:38.529Z,11.03
2022-11-17T19:59:09.709Z,10.17
2022-11-17T20:01:39.912Z,10.50
2022-11-17T20:04:07.544Z,10.67
2022-11-17T20:06:37.994Z,11.10
2022-11-17T20:09:11.858Z,10.23
2022-11-17T20:11:39.786Z,9.73
2022-11-17T20:14:07.692Z,9.87
2022-11-17T20:16:36.891Z,9.63
2022-11-17T20:19:04.594Z,9.43
2022-11-17T20:21:32.474Z,10.70
2022-11-17T20:24:01.271Z,11.37
2022-11-17T20:26:32.501Z,11.20
2022-11-17T20:29:00.946Z,10.30
2022-11-17T20:31:31.791Z,8.87
2022-11-17T20:34:01.166Z,8.43
2022-11-17T20:36:31.284Z,10.00
2022-11-17T20:39:04.575Z,11.23
2022-11-17T20:41:32.641Z,9.60
2022-11-17T20:44:01.956Z,10.67
2022-11-17T20:46:29.815Z,9.23
2022-11-17T20:48:57.234Z,11.40
2022-11-17T20:51:25.735Z,9.40
2022-11-17T20:53:53.657Z,11.60
2022-11-17T20:56:21.397Z,9.53
2022-11-17T20:58:49.067Z,10.43
2022-11-17T21:01:20.445Z,10.10
2022-11-17T21:03:48.298Z,9.93
2022-11-17T21:06:16.372Z,10.27
2022-11-17T21:08:45.487Z,11.63
2022-11-17T21:11:36.344Z,10.17
2022-11-17T21:14:06.178Z,10.63
2022-11-17T21:16:34.819Z,10.87
2022-11-17T21:19:02.289Z,11.33
2022-11-17T21:21:30.011Z,9.80
2022-11-17T21:23:57.750Z,10.80
2022-11-17T21:26:25.714Z,11.17
2022-11-17T21:28:53.727Z,11.10
2022-11-17T21:31:27.072Z,11.60
2022-11-17T21:33:57.521Z,11.30
2022-11-17T21:36:27.815Z,11.63
2022-11-17T21:38:56.547Z,10.53
2022-11-17T21:41:30.489Z,10.60
2022-11-17T21:44:02.887Z,10.00
2022-11-17T21:46:33.348Z,10.33
2022-11-17T21:49:01.273Z,11.33
2022-11-17T21:51:35.091Z,12.87
2022-11-17T21:54:06.274Z,16.87
2022-11-17T21:56:34.077Z,13.30
2022-11-17T21:59:05.157Z,11.20
2022-11-17T22:01:34.134Z,11.53
2022-11-17T22:04:01.859Z,11.00
2022-11-17T22:06:30.483Z,11.57
2022-11-17T22:08:59.636Z,12.00
2022-11-17T22:11:38.351Z,11.97
2022-11-17T22:14:19.341Z,14.07
2022-11-17T22:16:55.451Z,13.47
2022-11-17T22:19:26.855Z,17.07
2022-11-17T22:21:54.866Z,16.23
2022-11-17T22:24:22.407Z,12.30
2022-11-17T22:26:51.787Z,16.73
2022-11-17T22:29:22.147Z,15.07
2022-11-17T22:31:50.500Z,11.77
2022-11-17T22:34:18.898Z,10.83
2022-11-17T22:36:46.570Z,11.73
2022-11-17T22:39:14.285Z,10.57
2022-11-17T22:41:41.930Z,12.17
2022-11-17T22:44:14.195Z,11.37
2022-11-17T22:46:43.365Z,11.80
2022-11-17T22:49:11.043Z,11.00
2022-11-17T22:51:57.269Z,11.27
2022-11-17T22:54:24.711Z,11.23
2022-11-17T22:56:52.208Z,10.83
2022-11-17T22:59:21.276Z,12.57
2022-11-17T23:01:48.692Z,10.63
2022-11-17T23:04:16.705Z,11.93
2022-11-17T23:06:44.990Z,11.23
2022-11-17T23:09:12.775Z,12.13
2022-11-17T23:11:40.616Z,11.70
2022-11-17T23:14:12.315Z,12.80
2022-11-17T23:16:39.850Z,10.87
2022-11-17T23:19:09.667Z,11.47
2022-11-17T23:21:37.168Z,10.00
2022-11-17T23:24:05.400Z,10.67
2022-11-17T23:26:32.836Z,10.30
2022-11-17T23:29:00.306Z,10.97
2022-11-17T23:31:28.314Z,11.33
2022-11-17T23:33:56.372Z,10.30
2022-11-17T23:36:24.361Z,11.57
2022-11-17T23:38:55.530Z,10.40
2022-11-17T23:41:22.908Z,11.17
2022-11-17T23:43:52.723Z,10.30
2022-11-17T23:46:23.685Z,10.23
2022-11-17T23:48:51.992Z,11.50
2022-11-17T23:51:25.031Z,11.00
2022-11-17T23:53:53.270Z,10.57
2022-11-17T23:56:21.700Z,9.93
2022-11-17T23:58:50.553Z,9.00
